createdAt,value
2023-02-25T00:02:04.718Z,4.60
2023-02-25T00:04:31.842Z,4.50
2023-02-25T00:06:58.952Z,4.50
2023-02-25T00:09:25.831Z,4.60
2023-02-25T00:11:53.093Z,4.60
2023-02-25T00:14:19.987Z,4.60
2023-02-25T00:16:47.924Z,4.60
2023-02-25T00:19:15.253Z,4.60
2023-02-25T00:21:42.468Z,4.60
2023-02-25T00:24:16.543Z,4.70
2023-02-25T00:26:44.251Z,4.70
2023-02-25T00:29:13.707Z,4.60
2023-02-25T00:31:40.949Z,4.60
2023-02-25T00:34:09.200Z,4.70
2023-02-25T00:36:36.353Z,4.60
2023-02-25T00:39:05.759Z,4.70
2023-02-25T00:41:32.871Z,4.70
2023-02-25T00:44:00.259Z,4.70
2023-02-25T00:46:27.584Z,4.70
2023-02-25T00:48:54.561Z,4.70
2023-02-25T00:51:23.077Z,4.70
2023-02-25T00:53:50.699Z,4.70
2023-02-25T00:56:17.754Z,4.70
2023-02-25T00:58:44.984Z,4.70
2023-02-25T01:01:32.085Z,4.80
2023-02-25T01:03:59.333Z,4.70
2023-02-25T01:06:26.706Z,4.70
2023-02-25T01:08:53.908Z,4.70
2023-02-25T01:11:22.041Z,4.70
2023-02-25T01:13:49.471Z,4.80
2023-02-25T01:16:22.138Z,4.80
2023-02-25T01:18:51.670Z,4.80
2023-02-25T01:21:26.666Z,4.80
2023-02-25T01:23:58.854Z,4.70
2023-02-25T01:26:26.285Z,4.70
2023-02-25T01:28:53.180Z,4.60
2023-02-25T01:31:24.920Z,4.70
2023-02-25T01:33:52.047Z,4.70
2023-02-25T01:36:19.061Z,4.70
2023-02-25T01:38:45.896Z,4.70
2023-02-25T01:41:12.896Z,4.70
2023-02-25T01:43:40.584Z,4.70
2023-02-25T01:46:07.521Z,4.60
2023-02-25T01:48:37.980Z,4.60
2023-02-25T01:51:09.892Z,4.60
2023-02-25T01:53:46.464Z,4.60
2023-02-25T01:56:14.676Z,4.50
2023-02-25T01:58:41.645Z,4.60
2023-02-25T02:01:12.879Z,4.60
2023-02-25T02:03:40.241Z,4.60
2023-02-25T02:06:08.500Z,4.60
2023-02-25T02:08:35.672Z,4.60
2023-02-25T02:11:03.045Z,4.60
2023-02-25T02:13:31.749Z,4.50
2023-02-25T02:16:05.788Z,4.50
2023-02-25T02:18:33.952Z,4.50
2023-02-25T02:21:04.504Z,4.40
2023-02-25T02:23:46.534Z,4.40
2023-02-25T02:26:20.852Z,4.40
2023-02-25T02:29:06.630Z,4.30
2023-02-25T02:31:54.869Z,4.30
2023-02-25T02:34:29.702Z,4.20
2023-02-25T02:37:05.440Z,4.20
2023-02-25T02:39:34.088Z,4.20
2023-02-25T02:42:03.632Z,4.10
2023-02-25T02:44:31.685Z,4.10
2023-02-25T02:47:07.107Z,4.10
2023-02-25T02:49:36.465Z,4.10
2023-02-25T02:52:19.717Z,4.10
2023-02-25T02:54:50.711Z,4.10
2023-02-25T02:57:17.872Z,4.10
2023-02-25T02:59:51.419Z,4.10
2023-02-25T03:02:22.755Z,4.10
2023-02-25T03:04:50.663Z,4.10
2023-02-25T03:07:18.048Z,4.10
2023-02-25T03:09:55.867Z,4.10
2023-02-25T03:12:24.235Z,4.10
2023-02-25T03:14:53.407Z,4.10
2023-02-25T03:17:29.999Z,4.10
2023-02-25T03:20:00.100Z,4.10
2023-02-25T03:22:27.994Z,4.10
2023-02-25T03:25:05.796Z,4.10
2023-02-25T03:27:36.613Z,4.10
2023-02-25T03:30:06.462Z,4.00
2023-02-25T03:32:35.294Z,4.00
2023-02-25T03:35:04.300Z,4.00
2023-02-25T03:37:31.722Z,3.90
2023-02-25T03:39:59.854Z,3.90
2023-02-25T03:42:31.885Z,3.80
2023-02-25T03:44:59.478Z,3.80
2023-02-25T03:47:27.130Z,3.80
2023-02-25T03:50:00.945Z,3.80
2023-02-25T03:52:28.202Z,3.80
2023-02-25T03:54:59.436Z,3.80
2023-02-25T03:57:29.559Z,3.80
2023-02-25T03:59:56.635Z,3.90
2023-02-25T04:02:28.521Z,3.90
2023-02-25T04:04:56.052Z,3.90
2023-02-25T04:07:24.151Z,3.90
2023-02-25T04:09:51.073Z,3.90
2023-02-25T04:12:18.827Z,3.90
2023-02-25T04:14:45.852Z,3.90
2023-02-25T04:17:13.524Z,3.90
2023-02-25T04:19:40.992Z,3.90
2023-02-25T04:22:08.427Z,3.90
2023-02-25T04:24:35.354Z,4.00
2023-02-25T04:27:02.654Z,4.00
2023-02-25T04:29:29.784Z,4.00
2023-02-25T04:31:56.814Z,4.00
2023-02-25T04:34:23.802Z,4.00
2023-02-25T04:36:50.713Z,4.00
2023-02-25T04:39:18.280Z,4.00
2023-02-25T04:41:45.328Z,4.10
2023-02-25T04:44:12.395Z,4.10
2023-02-25T04:46:41.505Z,4.00
2023-02-25T04:49:09.540Z,4.00
2023-02-25T04:51:37.104Z,4.00
2023-02-25T04:54:04.161Z,4.00
2023-02-25T04:56:31.369Z,3.90
2023-02-25T04:58:58.249Z,3.90
2023-02-25T05:01:25.171Z,3.90
2023-02-25T05:03:57.091Z,3.90
2023-02-25T05:06:24.790Z,3.80
2023-02-25T05:08:51.879Z,3.80
2023-02-25T05:11:19.138Z,3.90
2023-02-25T05:13:46.089Z,3.90
2023-02-25T05:16:13.792Z,3.90
2023-02-25T05:18:41.090Z,3.80
2023-02-25T05:21:14.685Z,3.80
2023-02-25T05:23:41.795Z,3.90
2023-02-25T05:26:09.189Z,3.80
2023-02-25T05:28:36.061Z,3.80
2023-02-25T05:31:09.762Z,3.80
2023-02-25T05:33:36.898Z,3.80
2023-02-25T05:36:08.034Z,3.80
2023-02-25T05:38:35.086Z,3.80
2023-02-25T05:41:02.467Z,3.80
2023-02-25T05:43:29.393Z,3.80
2023-02-25T05:45:56.688Z,3.80
2023-02-25T05:48:23.606Z,3.80
2023-02-25T05:50:51.369Z,3.80
2023-02-25T05:53:18.724Z,3.70
2023-02-25T05:55:45.591Z,3.70
2023-02-25T05:58:12.957Z,3.70
2023-02-25T06:00:39.940Z,3.70
2023-02-25T06:03:07.024Z,3.70
2023-02-25T06:05:34.055Z,3.70
2023-02-25T06:08:01.085Z,3.70
2023-02-25T06:10:27.956Z,3.70
2023-02-25T06:12:54.796Z,3.70
2023-02-25T06:15:21.822Z,3.70
2023-02-25T06:17:48.674Z,3.70
2023-02-25T06:20:16.762Z,3.70
2023-02-25T06:22:43.643Z,3.70
2023-02-25T06:25:10.527Z,3.70
2023-02-25T06:27:37.686Z,3.70
2023-02-25T06:30:04.741Z,3.70
2023-02-25T06:32:31.928Z,3.70
2023-02-25T06:34:58.829Z,3.60
2023-02-25T06:37:25.725Z,3.60
2023-02-25T06:39:52.920Z,3.60
2023-02-25T06:42:20.166Z,3.60
2023-02-25T06:44:47.023Z,3.60
2023-02-25T06:47:13.987Z,3.60
2023-02-25T06:49:41.002Z,3.60
2023-02-25T06:52:07.919Z,3.60
2023-02-25T06:54:34.811Z,3.60
2023-02-25T06:57:01.740Z,3.60
2023-02-25T06:59:28.626Z,3.60
2023-02-25T07:01:55.589Z,3.60
2023-02-25T07:04:22.514Z,3.50
2023-02-25T07:06:49.649Z,3.50
2023-02-25T07:09:16.641Z,3.50
2023-02-25T07:11:43.785Z,3.40
2023-02-25T07:14:12.418Z,3.40
2023-02-25T07:16:39.684Z,3.40
2023-02-25T07:19:06.629Z,3.40
2023-02-25T07:21:33.835Z,3.40
2023-02-25T07:24:00.728Z,3.40
2023-02-25T07:26:28.587Z,3.40
2023-02-25T07:28:56.364Z,3.40
2023-02-25T07:31:23.846Z,3.40
2023-02-25T07:33:51.304Z,3.40
2023-02-25T07:36:18.295Z,3.40
2023-02-25T07:38:45.324Z,3.40
2023-02-25T07:41:13.021Z,3.40
2023-02-25T07:43:40.125Z,3.40
2023-02-25T07:46:07.232Z,3.40
2023-02-25T07:48:34.210Z,3.40
2023-02-25T07:51:04.997Z,3.50
2023-02-25T07:53:32.043Z,3.50
2023-02-25T07:55:59.220Z,3.60
2023-02-25T07:58:28.618Z,3.60
2023-02-25T08:00:55.677Z,3.70
2023-02-25T08:03:22.692Z,3.70
2023-02-25T08:05:54.061Z,3.70
2023-02-25T08:08:21.517Z,3.70
2023-02-25T08:10:48.440Z,3.80
2023-02-25T08:13:15.469Z,3.80
2023-02-25T08:15:45.719Z,3.80
2023-02-25T08:18:12.807Z,3.80
2023-02-25T08:20:39.813Z,3.90
2023-02-25T08:23:07.044Z,3.90
2023-02-25T08:25:33.932Z,3.90
2023-02-25T08:28:00.929Z,3.90
2023-02-25T08:30:28.014Z,4.00
2023-02-25T08:32:55.007Z,4.00
2023-02-25T08:35:21.975Z,4.10
2023-02-25T08:37:49.241Z,4.10
2023-02-25T08:40:18.103Z,4.20
2023-02-25T08:42:46.727Z,4.10
2023-02-25T08:45:14.283Z,4.20
2023-02-25T08:47:41.849Z,4.10
2023-02-25T08:50:09.914Z,4.20
2023-02-25T08:52:36.867Z,4.20
2023-02-25T08:55:03.999Z,4.20
2023-02-25T08:57:31.281Z,4.30
2023-02-25T08:59:58.413Z,4.40
2023-02-25T09:02:25.411Z,4.40
2023-02-25T09:04:52.465Z,4.50
2023-02-25T09:07:20.480Z,4.50
2023-02-25T09:09:47.612Z,4.60
2023-02-25T09:12:14.806Z,4.60
2023-02-25T09:14:41.745Z,4.60
2023-02-25T09:17:08.973Z,4.50
2023-02-25T09:19:38.894Z,4.60
2023-02-25T09:22:06.376Z,4.70
2023-02-25T09:24:33.704Z,4.60
2023-02-25T09:27:01.188Z,4.60
2023-02-25T09:29:28.039Z,4.60
2023-02-25T09:31:55.077Z,4.60
2023-02-25T09:34:22.079Z,4.60
2023-02-25T09:36:49.006Z,4.50
2023-02-25T09:39:15.866Z,4.50
2023-02-25T09:41:46.112Z,4.60
2023-02-25T09:44:17.263Z,4.60
2023-02-25T09:46:57.325Z,4.60
2023-02-25T09:49:43.007Z,4.50
2023-02-25T09:52:18.749Z,4.50
2023-02-25T09:54:46.432Z,4.50
2023-02-25T09:57:19.158Z,4.50
2023-02-25T09:59:46.577Z,4.60
2023-02-25T10:02:28.020Z,4.60
2023-02-25T10:05:14.988Z,4.60
2023-02-25T10:07:50.011Z,4.70
2023-02-25T10:10:19.848Z,4.60
2023-02-25T10:12:53.105Z,4.60
2023-02-25T10:15:35.312Z,4.60
2023-02-25T10:18:12.070Z,4.60
2023-02-25T10:20:39.533Z,4.50
2023-02-25T10:23:23.670Z,4.50
2023-02-25T10:25:56.879Z,4.50
2023-02-25T10:28:23.856Z,4.40
2023-02-25T10:31:00.427Z,4.40
2023-02-25T10:33:27.955Z,4.50
2023-02-25T10:35:56.630Z,4.70
2023-02-25T10:38:23.482Z,4.70
2023-02-25T10:40:51.290Z,4.80
2023-02-25T10:43:22.505Z,4.90
2023-02-25T10:45:49.884Z,5.00
2023-02-25T10:48:20.987Z,5.10
2023-02-25T10:51:06.615Z,5.10
2023-02-25T10:53:33.866Z,5.20
2023-02-25T10:56:00.767Z,5.10
2023-02-25T10:58:31.805Z,5.00
2023-02-25T11:01:00.614Z,4.90
2023-02-25T11:03:29.185Z,4.80
2023-02-25T11:06:28.831Z,4.90
2023-02-25T11:08:58.492Z,4.80
2023-02-25T11:11:26.781Z,4.70
2023-02-25T11:14:09.201Z,4.60
2023-02-25T11:16:37.044Z,4.60
2023-02-25T11:19:15.200Z,4.70
2023-02-25T11:21:42.457Z,4.70
2023-02-25T11:24:12.456Z,4.90
2023-02-25T11:26:41.481Z,5.00
2023-02-25T11:29:28.579Z,5.10
2023-02-25T11:32:04.595Z,5.20
2023-02-25T11:34:31.682Z,5.20
2023-02-25T11:37:17.489Z,5.10
2023-02-25T11:39:51.759Z,5.00
2023-02-25T11:42:21.807Z,4.90
2023-02-25T11:44:48.620Z,4.80
2023-02-25T11:47:28.792Z,4.70
2023-02-25T11:50:07.825Z,4.70
2023-02-25T11:52:35.481Z,4.80
2023-02-25T11:55:02.351Z,4.80
2023-02-25T11:57:47.387Z,4.80
2023-02-25T12:00:19.444Z,4.80
2023-02-25T12:03:05.180Z,4.70
2023-02-25T12:05:55.453Z,4.60
2023-02-25T12:08:41.108Z,4.60
2023-02-25T12:11:26.974Z,4.60
2023-02-25T12:13:57.140Z,4.80
2023-02-25T12:16:24.625Z,5.00
2023-02-25T12:19:02.571Z,5.10
2023-02-25T12:21:46.256Z,5.10
2023-02-25T12:24:21.495Z,5.10
2023-02-25T12:26:48.396Z,5.00
2023-02-25T12:29:36.736Z,4.90
2023-02-25T12:32:09.542Z,5.00
2023-02-25T12:34:39.754Z,5.00
2023-02-25T12:37:09.570Z,5.00
2023-02-25T12:39:38.271Z,5.10
2023-02-25T12:42:05.196Z,5.00
2023-02-25T12:44:41.313Z,5.00
2023-02-25T12:47:18.067Z,5.20
2023-02-25T12:49:54.906Z,5.40
2023-02-25T12:52:42.775Z,5.50
2023-02-25T12:55:28.330Z,5.60
2023-02-25T12:57:55.259Z,5.50
2023-02-25T13:00:42.668Z,5.50
2023-02-25T13:03:33.357Z,5.30
2023-02-25T13:06:03.339Z,5.30
2023-02-25T13:08:45.730Z,5.40
2023-02-25T13:11:21.616Z,5.50
2023-02-25T13:13:57.957Z,5.50
2023-02-25T13:16:43.166Z,5.40
2023-02-25T13:19:30.252Z,5.30
2023-02-25T13:22:12.626Z,5.30
2023-02-25T13:24:55.681Z,5.40
2023-02-25T13:27:25.490Z,5.40
2023-02-25T13:30:12.168Z,5.50
2023-02-25T13:32:44.856Z,5.70
2023-02-25T13:35:30.458Z,5.80
2023-02-25T13:38:15.953Z,5.70
2023-02-25T13:40:46.567Z,5.40
2023-02-25T13:43:18.294Z,5.20
2023-02-25T13:45:48.199Z,5.00
2023-02-25T13:48:33.617Z,5.00
2023-02-25T13:51:24.863Z,5.00
2023-02-25T13:54:12.062Z,5.00
2023-02-25T13:56:50.879Z,5.00
2023-02-25T13:59:22.714Z,4.90
2023-02-25T14:01:49.795Z,4.90
2023-02-25T14:04:19.616Z,5.00
2023-02-25T14:06:49.624Z,5.10
2023-02-25T14:09:29.178Z,5.20
2023-02-25T14:12:11.535Z,5.20
2023-02-25T14:14:53.684Z,5.20
2023-02-25T14:17:35.607Z,5.10
2023-02-25T14:20:11.840Z,5.00
2023-02-25T14:22:40.988Z,4.90
2023-02-25T14:25:17.208Z,4.80
2023-02-25T14:27:49.894Z,4.60
2023-02-25T14:30:19.914Z,4.50
2023-02-25T14:33:05.686Z,4.40
2023-02-25T14:35:37.036Z,4.30
2023-02-25T14:38:03.976Z,4.20
2023-02-25T14:40:44.165Z,4.10
2023-02-25T14:43:43.352Z,4.10
2023-02-25T14:46:22.477Z,4.10
2023-02-25T14:49:00.288Z,3.90
2023-02-25T14:51:30.582Z,3.80
2023-02-25T14:54:20.256Z,3.90
2023-02-25T14:56:49.076Z,3.90
2023-02-25T14:59:15.889Z,4.00
2023-02-25T15:01:52.258Z,4.00
2023-02-25T15:04:31.496Z,4.00
2023-02-25T15:07:16.738Z,4.00
2023-02-25T15:09:50.186Z,4.00
2023-02-25T15:12:20.607Z,4.00
2023-02-25T15:15:10.555Z,3.90
2023-02-25T15:17:41.749Z,3.90
2023-02-25T15:20:20.564Z,3.90
2023-02-25T15:23:07.088Z,3.90
2023-02-25T15:25:38.201Z,3.80
2023-02-25T15:28:25.410Z,3.80
2023-02-25T15:31:01.254Z,3.90
2023-02-25T15:33:40.557Z,3.80
2023-02-25T15:36:19.884Z,3.80
2023-02-25T15:38:47.535Z,3.70
2023-02-25T15:41:37.591Z,3.60
2023-02-25T15:44:13.560Z,3.70
2023-02-25T15:46:41.739Z,3.70
2023-02-25T15:49:17.694Z,3.70
2023-02-25T15:51:44.846Z,3.70
2023-02-25T15:54:30.047Z,3.70
2023-02-25T15:57:05.347Z,3.60
2023-02-25T15:59:47.366Z,3.60
2023-02-25T16:02:27.037Z,3.60
2023-02-25T16:04:54.563Z,3.50
2023-02-25T16:07:21.901Z,3.40
2023-02-25T16:09:59.342Z,3.40
2023-02-25T16:12:26.349Z,3.30
2023-02-25T16:14:53.445Z,3.30
2023-02-25T16:17:21.558Z,3.30
2023-02-25T16:19:51.271Z,3.30
2023-02-25T16:22:22.210Z,3.30
2023-02-25T16:24:50.155Z,3.20
2023-02-25T16:27:20.563Z,3.10
2023-02-25T16:30:05.988Z,3.10
2023-02-25T16:32:52.710Z,3.10
2023-02-25T16:35:25.854Z,3.00
2023-02-25T16:38:02.944Z,3.00
2023-02-25T16:40:30.842Z,3.00
2023-02-25T16:42:58.404Z,2.90
2023-02-25T16:45:36.859Z,2.80
2023-02-25T16:48:07.533Z,2.80
2023-02-25T16:50:34.510Z,2.70
2023-02-25T16:53:02.128Z,2.70
2023-02-25T16:55:31.763Z,2.60
2023-02-25T16:58:01.482Z,2.60
2023-02-25T17:00:28.417Z,2.60
2023-02-25T17:02:58.539Z,2.50
2023-02-25T17:05:29.816Z,2.40
2023-02-25T17:07:59.904Z,2.40
2023-02-25T17:10:31.052Z,2.40
2023-02-25T17:12:58.018Z,2.50
2023-02-25T17:15:29.216Z,2.50
2023-02-25T17:18:17.030Z,2.50
2023-02-25T17:20:44.031Z,2.50
2023-02-25T17:23:11.815Z,2.50
2023-02-25T17:25:39.778Z,2.50
2023-02-25T17:28:07.237Z,2.50
2023-02-25T17:30:47.709Z,2.50
2023-02-25T17:33:22.457Z,2.50
2023-02-25T17:35:51.512Z,2.40
2023-02-25T17:38:19.815Z,2.40
2023-02-25T17:40:46.959Z,2.40
2023-02-25T17:43:18.003Z,2.50
2023-02-25T17:45:46.405Z,2.40
2023-02-25T17:48:32.367Z,2.40
2023-02-25T17:51:02.158Z,2.40
2023-02-25T17:53:35.471Z,2.40
2023-02-25T17:56:24.404Z,2.40
2023-02-25T17:58:52.589Z,2.40
2023-02-25T18:01:20.997Z,2.40
2023-02-25T18:03:48.335Z,2.30
2023-02-25T18:06:28.530Z,2.30
2023-02-25T18:08:55.795Z,2.30
2023-02-25T18:11:22.680Z,2.30
2023-02-25T18:13:49.633Z,2.40
2023-02-25T18:16:22.946Z,2.40
2023-02-25T18:18:50.602Z,2.40
2023-02-25T18:21:17.590Z,2.30
2023-02-25T18:23:44.493Z,2.30
2023-02-25T18:26:14.241Z,2.30
2023-02-25T18:28:41.139Z,2.30
2023-02-25T18:31:08.379Z,2.30
2023-02-25T18:33:35.430Z,2.30
2023-02-25T18:36:04.022Z,2.20
2023-02-25T18:38:30.918Z,2.30
2023-02-25T18:40:58.312Z,2.30
2023-02-25T18:43:30.905Z,2.30
2023-02-25T18:45:57.912Z,2.30
2023-02-25T18:48:25.723Z,2.30
2023-02-25T18:50:52.726Z,2.30
2023-02-25T18:53:20.204Z,2.30
2023-02-25T18:55:47.085Z,2.30
2023-02-25T18:58:14.338Z,2.30
2023-02-25T19:00:41.444Z,2.30
2023-02-25T19:03:10.065Z,2.30
2023-02-25T19:05:38.376Z,2.30
2023-02-25T19:08:15.112Z,2.40
2023-02-25T19:10:42.050Z,2.40
2023-02-25T19:13:14.893Z,2.40
2023-02-25T19:15:41.880Z,2.30
2023-02-25T19:18:11.379Z,2.30
2023-02-25T19:20:38.221Z,2.30
2023-02-25T19:23:05.330Z,2.30
2023-02-25T19:25:35.551Z,2.30
2023-02-25T19:28:02.539Z,2.20
2023-02-25T19:30:30.985Z,2.20
2023-02-25T19:33:03.554Z,2.20
2023-02-25T19:35:32.211Z,2.20
2023-02-25T19:37:59.128Z,2.10
2023-02-25T19:40:26.076Z,2.10
2023-02-25T19:42:53.016Z,2.10
2023-02-25T19:45:20.700Z,2.10
2023-02-25T19:47:47.927Z,2.10
2023-02-25T19:50:15.486Z,2.10
2023-02-25T19:52:42.704Z,2.10
2023-02-25T19:55:11.566Z,2.10
2023-02-25T19:57:38.664Z,2.00
2023-02-25T20:00:08.700Z,2.10
2023-02-25T20:02:39.104Z,2.10
2023-02-25T20:05:06.477Z,2.10
2023-02-25T20:07:33.530Z,2.10
2023-02-25T20:10:00.376Z,2.10
2023-02-25T20:12:27.229Z,2.20
2023-02-25T20:14:54.181Z,2.20
2023-02-25T20:17:21.033Z,2.20
2023-02-25T20:19:48.213Z,2.20
2023-02-25T20:22:15.170Z,2.20
2023-02-25T20:24:42.174Z,2.20
2023-02-25T20:27:09.103Z,2.20
2023-02-25T20:29:36.024Z,2.10
2023-02-25T20:32:03.193Z,2.10
2023-02-25T20:34:31.984Z,2.20
2023-02-25T20:37:17.915Z,2.10
2023-02-25T20:39:49.388Z,2.10
2023-02-25T20:42:20.180Z,2.10
2023-02-25T20:44:50.310Z,2.10
2023-02-25T20:47:25.137Z,2.10
2023-02-25T20:49:52.576Z,2.10
2023-02-25T20:52:20.061Z,2.10
2023-02-25T20:54:46.987Z,2.10
2023-02-25T20:57:14.331Z,2.00
2023-02-25T20:59:41.228Z,2.00
2023-02-25T21:02:08.204Z,2.00
2023-02-25T21:04:35.438Z,2.00
2023-02-25T21:07:03.862Z,2.10
2023-02-25T21:09:31.194Z,2.00
2023-02-25T21:11:58.045Z,2.00
2023-02-25T21:14:25.200Z,2.00
2023-02-25T21:16:54.440Z,2.00
2023-02-25T21:19:22.875Z,2.00
2023-02-25T21:21:50.128Z,2.00
2023-02-25T21:24:17.144Z,2.00
2023-02-25T21:26:44.203Z,2.00
2023-02-25T21:29:11.089Z,1.90
2023-02-25T21:31:38.127Z,1.90
2023-02-25T21:34:05.322Z,1.80
2023-02-25T21:36:32.359Z,1.70
2023-02-25T21:38:59.588Z,1.80
2023-02-25T21:41:27.232Z,1.80
2023-02-25T21:43:54.183Z,1.70
2023-02-25T21:46:21.095Z,1.70
2023-02-25T21:48:50.633Z,1.70
2023-02-25T21:51:18.735Z,1.80
2023-02-25T21:53:45.628Z,1.80
2023-02-25T21:56:13.540Z,1.80
2023-02-25T21:58:40.463Z,1.80
2023-02-25T22:01:13.661Z,1.80
2023-02-25T22:03:41.248Z,1.80
2023-02-25T22:06:08.464Z,1.80
2023-02-25T22:08:35.508Z,1.80
2023-02-25T22:11:02.614Z,1.80
2023-02-25T22:13:32.800Z,1.80
2023-02-25T22:16:03.170Z,1.80
2023-02-25T22:18:30.685Z,1.80
2023-02-25T22:21:04.472Z,1.90
2023-02-25T22:23:31.380Z,1.90
2023-02-25T22:26:01.850Z,1.80
2023-02-25T22:28:28.794Z,1.80
2023-02-25T22:30:55.850Z,1.80
2023-02-25T22:33:22.944Z,1.90
2023-02-25T22:35:53.301Z,1.90
2023-02-25T22:38:20.224Z,1.90
2023-02-25T22:40:47.112Z,1.80
2023-02-25T22:43:13.982Z,1.80
2023-02-25T22:45:40.916Z,1.80
2023-02-25T22:48:08.084Z,1.80
2023-02-25T22:50:34.953Z,1.80
2023-02-25T22:53:02.055Z,1.80
2023-02-25T22:55:28.966Z,1.80
2023-02-25T22:57:55.889Z,1.80
2023-02-25T23:00:24.051Z,1.80
2023-02-25T23:02:51.009Z,1.80
2023-02-25T23:05:17.900Z,1.80
2023-02-25T23:07:44.882Z,1.80
2023-02-25T23:10:11.910Z,1.80
2023-02-25T23:12:38.754Z,1.80
2023-02-25T23:15:05.905Z,1.80
2023-02-25T23:17:33.236Z,1.80
2023-02-25T23:20:00.469Z,1.80
2023-02-25T23:22:29.913Z,1.80
2023-02-25T23:24:56.738Z,1.80
2023-02-25T23:27:23.662Z,1.80
2023-02-25T23:29:51.035Z,1.80
2023-02-25T23:32:17.935Z,1.70
2023-02-25T23:34:44.951Z,1.70
2023-02-25T23:37:11.838Z,1.70
2023-02-25T23:39:39.801Z,1.70
2023-02-25T23:42:08.873Z,1.70
2023-02-25T23:44:35.990Z,1.70
2023-02-25T23:47:03.242Z,1.70
2023-02-25T23:49:30.081Z,1.80
2023-02-25T23:51:57.031Z,1.70
2023-02-25T23:54:23.926Z,1.70
2023-02-25T23:56:50.818Z,1.70
2023-02-25T23:59:17.869Z,1.70
